Key Lake Airport
CYKJ : now visible

Airfield :











YOU CAN JOIN US ON...

 
LOGIN :

Register | Disclaimer

   EN    FR    IT 

 









Legend :    VFR   Marginal VFR   IFR   Intensive IFR   Very Intensive IFR
Visi :
Ceiling :
>= 8 km
>= 3000ft
5 to 8 km
1000 to 3000 ft
1500m to 5 km
500 to 1000 ft
800 to 1500m
200 to 500 ft
< 800m
< 200 ft
Symbols :   Thunderstorms  Fog  Heavy snow  Heavy precipitations  Wind > 20 kt







- Airport Elevation : 1679 ft
- IATA code : YKJ


CYKJ - Key Lake

CURRENT METAR :
  • 202000Z AUTO 21007KT 9SM FEW020 SCT030 SCT046 15/11 A2961 RMK SLP041 DENSITY ALT 2400FT

EXPIRED METARs :
  • 201944Z AUTO 22011KT 9SM FEW016 SCT020 BKN028 BKN044 15/11 A2961 RMK SLP041 DENSITY ALT 2400FT
  • 201900Z AUTO 24004KT 9SM BKN012 OVC045 14/11 A2961 RMK SLP041 DENSITY ALT 2200FT
  • 201830Z AUTO VRB03KT 9SM BKN010 13/11 A2960 RMK SLP038 DENSITY ALT 2100FT
  • 201800Z AUTO 24003KT 190V270 9SM OVC006 12/11 A2961 RMK SLP043 DENSITY ALT 2000FT
  • 201716Z AUTO 23004KT 9SM BKN006 OVC075 11/10 A2962 RMK SLP047 DENSITY ALT 1800FT
  • 201700Z AUTO 25003KT 180V280 9SM -RA BKN006 OVC065 10/10 A2963 RMK SLP050 DENSITY ALT 1800FT

TAF TAF CYKJ
Valid from the 20 at 19:00 until the 21 at 00:00 UTC


201838Z 2019/2024 VRB03KT P6SM SCT010 BKN070 BKN120
TEMPO 2019/2020 P6SM -SHRA BKN010 OVC070
FM202000 26005KT P6SM FEW008 SCT070
BECMG 2020/2022 28010KT
FM202200 28010KT P6SM SCT030
TEMPO 2022/2024 BKN030 RMK FCST BASED ON AUTO OBS. NXT FCST WILL BE ISSUED AT 210945Z
No reported NOTAMs for that airfield.



MET'MAP, your aeronautical weather chart ! - Copyright ORBIFLY December 2007 - Disclaimer

ORBIFLY MET'MAP TEAM :

Programming & Development : Alexandra Zaïnal
Concept & Development : Baudouin d'Aumeries
Co-Development & Prog : Marc-Olivier Méhu
Technical & hardware support : Manuel Goepfert

Contact : metmap@orbifly.com




SOURCES & CREDITS :

   NOAA       Earth
Advisory